createdAt,value
2023-03-29T00:01:11.996Z,3.09
2023-03-29T00:03:59.266Z,3.11
2023-03-29T00:06:27.504Z,3.27
2023-03-29T00:08:53.897Z,3.20
2023-03-29T00:11:20.311Z,3.25
2023-03-29T00:13:46.692Z,3.36
2023-03-29T00:16:13.064Z,3.12
2023-03-29T00:18:39.476Z,3.42
2023-03-29T00:21:05.861Z,3.20
2023-03-29T00:23:32.279Z,3.47
2023-03-29T00:25:58.670Z,3.32
2023-03-29T00:28:25.089Z,3.19
2023-03-29T00:30:51.487Z,3.22
2023-03-29T00:33:17.868Z,3.30
2023-03-29T00:35:44.301Z,3.45
2023-03-29T00:38:10.715Z,3.35
2023-03-29T00:40:37.118Z,3.39
2023-03-29T00:43:03.542Z,3.29
2023-03-29T00:45:29.959Z,3.31
2023-03-29T00:47:56.461Z,3.49
2023-03-29T00:50:22.895Z,3.64
2023-03-29T00:52:49.293Z,3.50
2023-03-29T00:55:15.703Z,3.63
2023-03-29T00:57:42.123Z,3.39
2023-03-29T01:00:08.539Z,3.21
2023-03-29T01:02:35.180Z,3.51
2023-03-29T01:05:01.632Z,3.21
2023-03-29T01:07:28.010Z,3.41
2023-03-29T01:09:54.397Z,3.24
2023-03-29T01:12:20.796Z,3.27
2023-03-29T01:14:47.203Z,3.35
2023-03-29T01:17:13.606Z,3.13
2023-03-29T01:19:39.999Z,3.08
2023-03-29T01:22:06.364Z,3.06
2023-03-29T01:24:32.759Z,3.34
2023-03-29T01:26:59.144Z,3.32
2023-03-29T01:29:25.529Z,2.70
2023-03-29T01:31:51.990Z,2.21
2023-03-29T01:34:18.392Z,1.90
2023-03-29T01:36:44.833Z,2.26
2023-03-29T01:39:11.219Z,2.44
2023-03-29T01:41:37.614Z,2.72
2023-03-29T01:44:04.024Z,2.82
2023-03-29T01:46:30.448Z,2.81
2023-03-29T01:48:56.939Z,2.84
2023-03-29T01:51:23.347Z,2.69
2023-03-29T01:53:49.746Z,2.55
2023-03-29T01:56:16.146Z,2.52
2023-03-29T01:58:42.520Z,2.70
2023-03-29T02:01:09.114Z,2.59
2023-03-29T02:03:35.633Z,2.62
2023-03-29T02:06:02.104Z,2.61
2023-03-29T02:08:28.521Z,2.66
2023-03-29T02:10:54.957Z,2.88
2023-03-29T02:13:21.374Z,2.97
2023-03-29T02:15:47.829Z,2.84
2023-03-29T02:18:14.221Z,2.93
2023-03-29T02:20:40.659Z,2.88
2023-03-29T02:23:07.088Z,2.87
2023-03-29T02:25:33.491Z,2.92
2023-03-29T02:27:59.888Z,2.95
2023-03-29T02:30:26.281Z,2.66
2023-03-29T02:32:52.735Z,2.12
2023-03-29T02:35:19.131Z,1.41
2023-03-29T02:37:45.509Z,1.11
2023-03-29T02:40:11.947Z,1.20
2023-03-29T02:42:38.321Z,1.49
2023-03-29T02:45:05.961Z,1.75
2023-03-29T02:47:32.429Z,1.42
2023-03-29T02:49:58.845Z,1.16
2023-03-29T02:52:25.221Z,1.44
2023-03-29T02:54:51.595Z,1.13
2023-03-29T02:57:18.034Z,1.21
2023-03-29T02:59:44.512Z,1.34
2023-03-29T03:02:10.942Z,1.48
2023-03-29T03:04:37.352Z,1.43
2023-03-29T03:07:03.743Z,1.30
2023-03-29T03:09:30.110Z,1.06
2023-03-29T03:11:56.486Z,0.85
2023-03-29T03:14:22.952Z,0.62
2023-03-29T03:16:49.571Z,0.63
2023-03-29T03:19:16.035Z,0.77
2023-03-29T03:21:42.447Z,1.06
2023-03-29T03:24:08.822Z,1.15
2023-03-29T03:26:35.221Z,0.89
2023-03-29T03:29:01.606Z,0.88
2023-03-29T03:31:28.032Z,1.18
2023-03-29T03:33:54.474Z,1.13
2023-03-29T03:36:20.863Z,1.22
2023-03-29T03:38:47.230Z,1.57
2023-03-29T03:41:13.674Z,1.68
2023-03-29T03:43:40.069Z,1.81
2023-03-29T03:46:06.493Z,1.84
2023-03-29T03:48:32.981Z,2.01
2023-03-29T03:50:59.595Z,1.88
2023-03-29T03:53:26.064Z,1.94
2023-03-29T03:55:52.451Z,1.90
2023-03-29T03:58:18.868Z,1.75
2023-03-29T04:00:45.282Z,1.86
2023-03-29T04:03:11.783Z,1.58
2023-03-29T04:05:38.305Z,1.57
2023-03-29T04:08:04.683Z,1.49
2023-03-29T04:10:31.087Z,1.52
2023-03-29T04:12:57.503Z,2.22
2023-03-29T04:15:24.112Z,1.93
2023-03-29T04:17:50.673Z,1.93
2023-03-29T04:20:17.101Z,2.39
2023-03-29T04:22:43.534Z,2.04
2023-03-29T04:25:09.920Z,1.60
2023-03-29T04:27:36.296Z,1.58
2023-03-29T04:30:02.696Z,1.98
2023-03-29T04:32:29.217Z,1.86
2023-03-29T04:34:55.656Z,1.61
2023-03-29T04:37:22.062Z,1.28
2023-03-29T04:39:48.464Z,1.06
2023-03-29T04:42:14.862Z,1.12
2023-03-29T04:44:41.316Z,1.39
2023-03-29T04:47:07.765Z,1.50
2023-03-29T04:49:34.172Z,1.98
2023-03-29T04:52:00.554Z,2.03
2023-03-29T04:54:26.962Z,2.25
2023-03-29T04:56:53.395Z,2.24
2023-03-29T04:59:19.801Z,2.16
2023-03-29T05:01:46.231Z,1.99
2023-03-29T05:04:12.980Z,2.23
2023-03-29T05:06:39.459Z,2.10
2023-03-29T05:09:05.898Z,2.09
2023-03-29T05:11:32.295Z,2.01
2023-03-29T05:13:58.720Z,1.94
2023-03-29T05:16:25.199Z,1.84
2023-03-29T05:18:51.647Z,1.99
2023-03-29T05:21:18.032Z,1.85
2023-03-29T05:23:44.526Z,1.84
2023-03-29T05:26:10.916Z,2.05
2023-03-29T05:28:37.300Z,1.88
2023-03-29T05:31:03.866Z,1.77
2023-03-29T05:33:30.365Z,1.74
2023-03-29T05:35:56.756Z,1.75
2023-03-29T05:38:23.155Z,1.91
2023-03-29T05:40:49.592Z,1.88
2023-03-29T05:43:15.974Z,1.67
2023-03-29T05:45:42.431Z,1.77
2023-03-29T05:48:08.888Z,1.84
2023-03-29T05:50:35.322Z,1.85
2023-03-29T05:53:01.725Z,1.86
2023-03-29T05:55:28.150Z,1.76
2023-03-29T05:57:54.572Z,1.73
2023-03-29T06:00:20.966Z,1.85
2023-03-29T06:02:47.486Z,1.60
2023-03-29T06:05:13.940Z,1.79
2023-03-29T06:07:40.329Z,1.84
2023-03-29T06:10:06.766Z,1.78
2023-03-29T06:12:33.199Z,1.96
2023-03-29T06:14:59.640Z,1.81
2023-03-29T06:17:26.074Z,1.84
2023-03-29T06:19:52.613Z,1.79
2023-03-29T06:22:19.027Z,1.80
2023-03-29T06:24:45.409Z,1.66
2023-03-29T06:27:11.786Z,1.75
2023-03-29T06:29:38.273Z,1.68
2023-03-29T06:32:04.698Z,1.82
2023-03-29T06:34:31.080Z,1.53
2023-03-29T06:36:57.496Z,1.66
2023-03-29T06:39:23.893Z,1.78
2023-03-29T06:41:50.268Z,1.63
2023-03-29T06:44:16.646Z,1.58
2023-03-29T06:46:43.217Z,1.72
2023-03-29T06:49:09.653Z,1.62
2023-03-29T06:51:36.063Z,1.64
2023-03-29T06:54:02.467Z,1.74
2023-03-29T06:56:28.860Z,1.67
2023-03-29T06:58:55.263Z,1.53
2023-03-29T07:01:21.797Z,1.54
2023-03-29T07:03:48.388Z,1.47
2023-03-29T07:06:14.825Z,1.38
2023-03-29T07:08:41.393Z,1.38
2023-03-29T07:11:07.768Z,1.45
2023-03-29T07:13:34.138Z,1.38
2023-03-29T07:16:00.546Z,1.43
2023-03-29T07:18:26.977Z,1.19
2023-03-29T07:20:53.363Z,1.26
2023-03-29T07:23:19.748Z,1.11
2023-03-29T07:25:46.137Z,1.11
2023-03-29T07:28:12.562Z,1.43
2023-03-29T07:30:38.989Z,1.25
2023-03-29T07:33:05.511Z,1.45
2023-03-29T07:35:32.015Z,1.37
2023-03-29T07:37:58.462Z,1.47
2023-03-29T07:40:24.892Z,1.42
2023-03-29T07:42:51.315Z,1.35
2023-03-29T07:45:17.723Z,1.37
2023-03-29T07:47:44.147Z,1.31
2023-03-29T07:50:10.582Z,1.38
2023-03-29T07:52:37.005Z,1.51
2023-03-29T07:55:03.413Z,1.46
2023-03-29T07:57:29.814Z,1.46
2023-03-29T07:59:56.231Z,1.38
2023-03-29T08:02:22.635Z,1.45
2023-03-29T08:04:49.047Z,1.48
2023-03-29T08:07:17.050Z,1.52
2023-03-29T08:09:45.247Z,1.50
2023-03-29T08:12:11.649Z,1.47
2023-03-29T08:14:38.085Z,1.47
2023-03-29T08:17:04.594Z,1.50
2023-03-29T08:19:31.022Z,1.54
2023-03-29T08:21:57.410Z,1.78
2023-03-29T08:24:23.804Z,1.61
2023-03-29T08:26:50.173Z,1.61
2023-03-29T08:29:16.573Z,1.61
2023-03-29T08:31:43.000Z,1.61
2023-03-29T08:34:09.428Z,1.52
2023-03-29T08:36:35.828Z,1.57
2023-03-29T08:39:02.211Z,1.55
2023-03-29T08:41:28.611Z,1.41
2023-03-29T08:43:55.012Z,1.65
2023-03-29T08:46:21.486Z,1.94
2023-03-29T08:48:47.888Z,1.63
2023-03-29T08:51:14.282Z,1.65
2023-03-29T08:53:40.677Z,1.65
2023-03-29T08:56:07.061Z,1.72
2023-03-29T08:58:33.443Z,1.60
2023-03-29T09:01:00.118Z,1.94
2023-03-29T09:03:26.884Z,1.44
2023-03-29T09:05:53.336Z,1.55
2023-03-29T09:08:19.789Z,1.30
2023-03-29T09:10:46.287Z,1.81
2023-03-29T09:13:12.776Z,1.77
2023-03-29T09:15:39.782Z,1.62
2023-03-29T09:18:06.238Z,1.40
2023-03-29T09:20:32.722Z,1.37
2023-03-29T09:22:59.115Z,1.27
2023-03-29T09:25:25.519Z,1.49
2023-03-29T09:27:51.913Z,1.48
2023-03-29T09:30:18.358Z,1.61
2023-03-29T09:32:44.876Z,1.51
2023-03-29T09:35:11.272Z,1.51
2023-03-29T09:37:37.706Z,1.30
2023-03-29T09:40:05.217Z,1.55
2023-03-29T09:42:31.782Z,1.81
2023-03-29T09:44:58.195Z,1.71
2023-03-29T09:47:24.646Z,1.41
2023-03-29T09:49:51.039Z,1.46
2023-03-29T09:52:17.428Z,1.50
2023-03-29T09:54:43.848Z,1.43
2023-03-29T09:57:10.306Z,1.44
2023-03-29T09:59:36.713Z,1.53
2023-03-29T10:02:03.134Z,1.65
2023-03-29T10:04:29.600Z,1.51
2023-03-29T10:06:56.079Z,1.32
2023-03-29T10:09:22.468Z,1.57
2023-03-29T10:11:48.879Z,1.48
2023-03-29T10:14:15.289Z,1.55
2023-03-29T10:16:41.842Z,1.59
2023-03-29T10:19:08.324Z,1.60
2023-03-29T10:21:34.752Z,1.90
2023-03-29T10:24:01.126Z,1.77
2023-03-29T10:26:27.529Z,1.73
2023-03-29T10:28:53.924Z,1.99
2023-03-29T10:31:20.357Z,1.95
2023-03-29T10:33:46.771Z,1.84
2023-03-29T10:36:13.231Z,2.03
2023-03-29T10:38:39.662Z,1.92
2023-03-29T10:41:06.053Z,1.91
2023-03-29T10:43:32.503Z,1.87
2023-03-29T10:45:59.036Z,1.99
2023-03-29T10:48:25.428Z,1.79
2023-03-29T10:50:51.827Z,1.87
2023-03-29T10:53:18.257Z,1.87
2023-03-29T10:55:44.639Z,2.26
2023-03-29T10:58:11.054Z,1.86
2023-03-29T11:00:37.479Z,1.65
2023-03-29T11:03:03.954Z,1.75
2023-03-29T11:05:30.446Z,1.80
2023-03-29T11:07:56.834Z,1.57
2023-03-29T11:10:23.237Z,1.78
2023-03-29T11:12:49.658Z,1.74
2023-03-29T11:15:16.048Z,1.98
2023-03-29T11:17:42.487Z,2.03
2023-03-29T11:20:08.871Z,1.90
2023-03-29T11:22:35.276Z,1.71
2023-03-29T11:25:01.665Z,1.67
2023-03-29T11:27:28.079Z,1.93
2023-03-29T11:29:54.548Z,1.56
2023-03-29T11:32:20.999Z,1.65
2023-03-29T11:34:47.421Z,1.91
2023-03-29T11:37:13.814Z,1.88
2023-03-29T11:39:40.196Z,2.16
2023-03-29T11:42:06.618Z,1.93
2023-03-29T11:44:33.101Z,1.95
2023-03-29T11:46:59.524Z,2.12
2023-03-29T11:49:25.936Z,1.80
2023-03-29T11:51:52.343Z,1.78
2023-03-29T11:54:18.736Z,1.83
2023-03-29T11:56:45.185Z,1.86
2023-03-29T11:59:11.646Z,1.73
2023-03-29T12:01:38.120Z,1.98
2023-03-29T12:04:04.611Z,1.97
2023-03-29T12:06:31.116Z,1.96
2023-03-29T12:08:57.514Z,1.67
2023-03-29T12:11:23.918Z,1.72
2023-03-29T12:13:50.321Z,1.71
2023-03-29T12:16:16.767Z,1.71
2023-03-29T12:18:43.211Z,1.87
2023-03-29T12:21:09.642Z,1.78
2023-03-29T12:23:36.049Z,1.68
2023-03-29T12:26:02.461Z,1.83
2023-03-29T12:28:28.881Z,1.70
2023-03-29T12:30:55.281Z,1.75
2023-03-29T12:33:21.668Z,1.88
2023-03-29T12:35:48.119Z,1.80
2023-03-29T12:38:14.539Z,1.88
2023-03-29T12:40:40.967Z,2.04
2023-03-29T12:43:07.365Z,1.96
2023-03-29T12:45:33.749Z,1.91
2023-03-29T12:48:00.205Z,1.89
2023-03-29T12:50:26.661Z,1.75
2023-03-29T12:52:53.052Z,1.56
2023-03-29T12:55:19.417Z,1.48
2023-03-29T12:57:45.839Z,1.73
2023-03-29T13:00:12.228Z,1.65
2023-03-29T13:02:38.908Z,1.36
2023-03-29T13:05:05.600Z,1.77
2023-03-29T13:07:32.087Z,1.39
2023-03-29T13:09:58.520Z,1.44
2023-03-29T13:12:24.921Z,1.56
2023-03-29T13:14:51.323Z,1.88
2023-03-29T13:17:19.020Z,1.49
2023-03-29T13:19:45.715Z,1.34
2023-03-29T13:22:12.138Z,1.47
2023-03-29T13:24:38.538Z,1.54
2023-03-29T13:27:04.914Z,1.57
2023-03-29T13:29:31.324Z,1.58
2023-03-29T13:31:57.694Z,1.55
2023-03-29T13:34:24.078Z,1.65
2023-03-29T13:36:50.499Z,1.55
2023-03-29T13:39:16.893Z,1.66
2023-03-29T13:41:43.295Z,1.47
2023-03-29T13:44:09.695Z,1.61
2023-03-29T13:46:36.100Z,1.64
2023-03-29T13:49:02.534Z,1.77
2023-03-29T13:51:28.960Z,1.63
2023-03-29T13:53:55.356Z,1.67
2023-03-29T13:56:21.742Z,1.81
2023-03-29T13:58:48.166Z,1.90
2023-03-29T14:01:14.659Z,1.91
2023-03-29T14:03:41.221Z,1.82
2023-03-29T14:06:07.627Z,2.11
2023-03-29T14:08:35.813Z,1.86
2023-03-29T14:11:02.407Z,1.70
2023-03-29T14:13:28.825Z,1.71
2023-03-29T14:15:55.264Z,1.72
2023-03-29T14:18:21.655Z,1.66
2023-03-29T14:20:48.060Z,1.88
2023-03-29T14:23:16.121Z,1.54
2023-03-29T14:25:42.665Z,1.57
2023-03-29T14:28:09.045Z,1.71
2023-03-29T14:30:35.446Z,1.46
2023-03-29T14:33:01.878Z,1.55
2023-03-29T14:35:28.322Z,1.73
2023-03-29T14:37:54.752Z,2.08
2023-03-29T14:40:21.228Z,1.66
2023-03-29T14:42:47.649Z,1.66
2023-03-29T14:45:14.081Z,1.78
2023-03-29T14:47:40.512Z,1.68
2023-03-29T14:50:06.954Z,1.71
2023-03-29T14:52:33.362Z,1.73
2023-03-29T14:54:59.794Z,1.80
2023-03-29T14:57:26.319Z,1.84
2023-03-29T14:59:52.877Z,1.67
2023-03-29T15:02:19.322Z,1.60
2023-03-29T15:04:45.745Z,1.75
2023-03-29T15:07:12.143Z,1.70
2023-03-29T15:09:38.541Z,2.01
2023-03-29T15:12:04.922Z,1.91
2023-03-29T15:14:31.329Z,1.56
2023-03-29T15:16:57.705Z,1.84
2023-03-29T15:19:24.094Z,1.91
2023-03-29T15:21:50.504Z,1.81
2023-03-29T15:24:16.912Z,1.85
2023-03-29T15:26:43.325Z,1.90
2023-03-29T15:29:09.719Z,1.79
2023-03-29T15:31:36.181Z,2.07
2023-03-29T15:34:02.594Z,1.81
2023-03-29T15:36:28.973Z,1.88
2023-03-29T15:38:55.366Z,1.97
2023-03-29T15:41:21.752Z,1.74
2023-03-29T15:43:48.155Z,1.86
2023-03-29T15:46:14.632Z,1.70
2023-03-29T15:48:41.055Z,1.92
2023-03-29T15:51:07.520Z,1.90
2023-03-29T15:53:33.978Z,1.89
2023-03-29T15:56:00.527Z,2.02
2023-03-29T15:58:27.048Z,1.89
2023-03-29T16:00:53.505Z,1.74
2023-03-29T16:03:19.975Z,2.11
2023-03-29T16:05:46.401Z,2.04
2023-03-29T16:08:12.787Z,1.83
2023-03-29T16:10:39.178Z,1.94
2023-03-29T16:13:05.576Z,1.83
2023-03-29T16:15:31.967Z,1.73
2023-03-29T16:17:58.446Z,1.93
2023-03-29T16:20:24.881Z,1.75
2023-03-29T16:22:51.330Z,1.82
2023-03-29T16:25:17.802Z,1.96
2023-03-29T16:27:44.213Z,2.02
2023-03-29T16:30:10.620Z,1.89
2023-03-29T16:32:37.062Z,1.84
2023-03-29T16:35:03.472Z,1.98
2023-03-29T16:37:29.865Z,2.27
2023-03-29T16:39:56.444Z,1.97
2023-03-29T16:42:22.896Z,2.11
2023-03-29T16:44:49.303Z,1.75
2023-03-29T16:47:15.854Z,2.08
2023-03-29T16:49:43.729Z,1.89
2023-03-29T16:52:12.123Z,2.17
2023-03-29T16:54:38.584Z,1.83
2023-03-29T16:57:05.017Z,2.04
2023-03-29T16:59:31.426Z,1.96
2023-03-29T17:01:57.858Z,2.11
2023-03-29T17:04:24.293Z,2.23
2023-03-29T17:06:50.757Z,2.00
2023-03-29T17:09:17.247Z,1.87
2023-03-29T17:11:43.752Z,2.02
2023-03-29T17:14:10.433Z,2.10
2023-03-29T17:16:36.916Z,2.09
2023-03-29T17:19:03.362Z,1.99
2023-03-29T17:21:29.800Z,2.11
2023-03-29T17:23:56.192Z,2.11
2023-03-29T17:26:22.672Z,2.42
2023-03-29T17:28:49.095Z,2.33
2023-03-29T17:31:15.535Z,2.43
2023-03-29T17:33:41.973Z,2.48
2023-03-29T17:36:08.812Z,2.16
2023-03-29T17:38:35.345Z,2.43
2023-03-29T17:41:01.747Z,2.23
2023-03-29T17:43:28.155Z,2.02
2023-03-29T17:45:54.536Z,2.19
2023-03-29T17:48:21.064Z,2.55
2023-03-29T17:50:47.563Z,2.32
2023-03-29T17:53:13.971Z,2.97
2023-03-29T17:55:40.383Z,2.32
2023-03-29T17:58:06.790Z,2.71
2023-03-29T18:00:33.183Z,2.38
2023-03-29T18:02:59.617Z,2.45
2023-03-29T18:05:26.051Z,2.56
2023-03-29T18:07:52.435Z,2.49
2023-03-29T18:10:18.840Z,2.82
2023-03-29T18:12:45.205Z,2.57
2023-03-29T18:15:11.603Z,2.62
2023-03-29T18:17:38.006Z,2.74
2023-03-29T18:20:04.417Z,2.85
2023-03-29T18:22:30.802Z,2.84
2023-03-29T18:24:57.209Z,2.63
2023-03-29T18:27:23.681Z,2.43
2023-03-29T18:29:50.074Z,2.20
2023-03-29T18:32:16.521Z,2.25
2023-03-29T18:34:43.040Z,2.47
2023-03-29T18:37:09.429Z,2.86
2023-03-29T18:39:35.836Z,2.44
2023-03-29T18:42:02.245Z,3.12
2023-03-29T18:44:28.666Z,3.28
2023-03-29T18:46:55.064Z,3.47
2023-03-29T18:49:21.454Z,3.80
2023-03-29T18:51:47.868Z,3.38
2023-03-29T18:54:14.286Z,3.20
2023-03-29T18:56:40.737Z,3.51
2023-03-29T18:59:07.139Z,3.76
2023-03-29T19:01:33.625Z,3.84
2023-03-29T19:04:00.109Z,4.02
2023-03-29T19:06:26.612Z,3.77
2023-03-29T19:08:52.976Z,3.60
2023-03-29T19:11:19.408Z,3.17
2023-03-29T19:13:45.926Z,2.62
2023-03-29T19:16:12.421Z,2.52
2023-03-29T19:18:38.824Z,2.75
2023-03-29T19:21:05.290Z,2.68
2023-03-29T19:23:31.692Z,2.45
2023-03-29T19:25:58.101Z,3.00
2023-03-29T19:28:24.536Z,2.73
2023-03-29T19:30:50.928Z,2.94
2023-03-29T19:33:17.407Z,2.93
2023-03-29T19:35:43.823Z,3.11
2023-03-29T19:38:10.268Z,3.55
2023-03-29T19:40:36.675Z,4.38
2023-03-29T19:43:03.078Z,3.18
2023-03-29T19:45:29.467Z,3.24
2023-03-29T19:47:55.896Z,3.21
2023-03-29T19:50:22.336Z,3.80
2023-03-29T19:52:48.767Z,3.72
2023-03-29T19:55:15.175Z,3.10
2023-03-29T19:57:41.590Z,3.19
2023-03-29T20:00:08.004Z,3.46
2023-03-29T20:02:34.405Z,3.40
2023-03-29T20:05:00.809Z,3.32
2023-03-29T20:07:27.195Z,3.36
2023-03-29T20:09:53.655Z,3.17
2023-03-29T20:12:20.054Z,2.83
2023-03-29T20:14:46.469Z,3.34
2023-03-29T20:17:12.880Z,3.41
2023-03-29T20:19:39.291Z,5.35
2023-03-29T20:22:05.732Z,4.16
2023-03-29T20:24:32.128Z,3.18
2023-03-29T20:26:58.498Z,3.16
2023-03-29T20:29:24.932Z,3.38
2023-03-29T20:31:51.379Z,3.05
2023-03-29T20:34:17.801Z,3.18
2023-03-29T20:36:44.212Z,2.59
2023-03-29T20:39:10.583Z,2.39
2023-03-29T20:41:37.009Z,2.44
2023-03-29T20:44:03.405Z,2.51
2023-03-29T20:46:29.851Z,2.43
2023-03-29T20:48:56.294Z,2.49
2023-03-29T20:51:22.699Z,2.67
2023-03-29T20:53:49.073Z,2.71
2023-03-29T20:56:15.442Z,2.38
2023-03-29T20:58:41.906Z,2.41
2023-03-29T21:01:08.495Z,2.80
2023-03-29T21:03:34.966Z,2.78
2023-03-29T21:06:01.477Z,2.78
2023-03-29T21:08:27.892Z,3.25
2023-03-29T21:10:54.359Z,2.75
2023-03-29T21:13:20.776Z,2.93
2023-03-29T21:15:47.283Z,2.62
2023-03-29T21:18:13.756Z,2.59
2023-03-29T21:20:40.145Z,2.88
2023-03-29T21:23:06.565Z,3.01
2023-03-29T21:25:32.989Z,3.19
2023-03-29T21:27:59.664Z,3.23
2023-03-29T21:30:26.079Z,3.02
2023-03-29T21:32:52.560Z,3.27
2023-03-29T21:35:19.054Z,3.08
2023-03-29T21:37:45.454Z,3.06
2023-03-29T21:40:11.831Z,2.98
2023-03-29T21:42:38.223Z,3.26
2023-03-29T21:45:04.629Z,3.03
2023-03-29T21:47:31.111Z,3.18
2023-03-29T21:49:57.544Z,3.01
2023-03-29T21:52:23.985Z,2.99
2023-03-29T21:54:50.382Z,3.03
2023-03-29T21:57:16.826Z,3.29
2023-03-29T21:59:43.274Z,3.23
2023-03-29T22:02:09.716Z,2.87
2023-03-29T22:04:37.411Z,3.08
2023-03-29T22:07:04.215Z,3.40
2023-03-29T22:09:30.633Z,2.92
2023-03-29T22:11:57.033Z,3.03
2023-03-29T22:14:23.433Z,2.97
2023-03-29T22:16:49.890Z,2.78
2023-03-29T22:19:16.372Z,3.14
2023-03-29T22:21:42.793Z,3.01
2023-03-29T22:24:09.202Z,3.05
2023-03-29T22:26:35.638Z,3.17
2023-03-29T22:29:02.089Z,2.93
2023-03-29T22:31:28.545Z,3.03
2023-03-29T22:33:55.018Z,3.12
2023-03-29T22:36:21.435Z,3.15
2023-03-29T22:38:47.841Z,3.06
2023-03-29T22:41:14.233Z,3.22
2023-03-29T22:43:40.625Z,3.16
2023-03-29T22:46:07.054Z,3.14
2023-03-29T22:48:33.491Z,3.12
2023-03-29T22:50:59.915Z,3.33
2023-03-29T22:53:26.301Z,3.40
2023-03-29T22:55:52.744Z,3.55
2023-03-29T22:58:19.128Z,3.33
2023-03-29T23:00:45.504Z,3.18
2023-03-29T23:03:11.890Z,3.27
2023-03-29T23:05:38.288Z,3.38
2023-03-29T23:08:04.729Z,3.23
2023-03-29T23:10:31.144Z,3.25
2023-03-29T23:12:57.532Z,3.44
2023-03-29T23:15:24.047Z,3.59
2023-03-29T23:17:50.507Z,3.84
2023-03-29T23:20:16.927Z,3.36
2023-03-29T23:22:43.346Z,3.30
2023-03-29T23:25:09.729Z,3.69
2023-03-29T23:27:36.146Z,3.51
2023-03-29T23:30:02.558Z,3.36
2023-03-29T23:32:28.980Z,3.53
2023-03-29T23:34:55.384Z,3.82
2023-03-29T23:37:21.777Z,3.74
2023-03-29T23:39:48.151Z,3.44
2023-03-29T23:42:14.546Z,3.90
2023-03-29T23:44:40.961Z,4.33
2023-03-29T23:47:07.442Z,4.75
2023-03-29T23:49:33.945Z,4.05
2023-03-29T23:52:00.380Z,4.40
2023-03-29T23:54:26.786Z,3.97
2023-03-29T23:56:53.258Z,4.59
2023-03-29T23:59:19.645Z,3.93
